createdAt,value
2023-02-11T00:01:24.130Z,102677.63
2023-02-11T00:03:52.446Z,102683.16
2023-02-11T00:06:20.952Z,102678.50
2023-02-11T00:08:49.081Z,102673.28
2023-02-11T00:11:19.951Z,102676.53
2023-02-11T00:13:49.198Z,102644.59
2023-02-11T00:16:19.105Z,102666.91
2023-02-11T00:18:50.508Z,102668.28
2023-02-11T00:21:21.012Z,102652.53
2023-02-11T00:23:49.294Z,102659.25
2023-02-11T00:26:19.557Z,102657.88
2023-02-11T00:28:49.441Z,102659.81
2023-02-11T00:31:22.578Z,102658.41
2023-02-11T00:33:52.648Z,102658.31
2023-02-11T00:36:22.941Z,102665.41
2023-02-11T00:38:52.025Z,102663.56
2023-02-11T00:41:21.740Z,102656.03
2023-02-11T00:43:50.446Z,102664.34
2023-02-11T00:46:20.891Z,102651.94
2023-02-11T00:48:49.170Z,102660.47
2023-02-11T00:51:18.979Z,102653.81
2023-02-11T00:53:47.088Z,102658.25
2023-02-11T00:56:15.508Z,102655.03
2023-02-11T00:58:43.620Z,102646.78
2023-02-11T01:01:13.313Z,102644.19
2023-02-11T01:03:42.025Z,102646.50
2023-02-11T01:06:11.314Z,102645.81
2023-02-11T01:08:40.938Z,102647.06
2023-02-11T01:11:15.038Z,102648.78
2023-02-11T01:13:46.668Z,102643.25
2023-02-11T01:16:15.511Z,102653.22
2023-02-11T01:18:44.303Z,102651.56
2023-02-11T01:21:12.962Z,102644.59
2023-02-11T01:23:42.493Z,102642.09
2023-02-11T01:26:13.758Z,102640.78
2023-02-11T01:28:41.870Z,102638.38
2023-02-11T01:31:10.320Z,102649.78
2023-02-11T01:33:38.513Z,102636.94
2023-02-11T01:36:08.895Z,102646.16
2023-02-11T01:38:37.198Z,102632.56
2023-02-11T01:41:08.726Z,102623.56
2023-02-11T01:43:39.023Z,102636.19
2023-02-11T01:46:30.912Z,102627.97
2023-02-11T01:49:03.384Z,102627.16
2023-02-11T01:51:35.505Z,102624.78
2023-02-11T01:54:23.303Z,102626.50
2023-02-11T01:57:13.875Z,102616.75
2023-02-11T01:59:45.679Z,102611.22
2023-02-11T02:02:16.530Z,102602.41
2023-02-11T02:04:50.451Z,102598.97
2023-02-11T02:07:26.532Z,102590.09
2023-02-11T02:10:00.726Z,102588.66
2023-02-11T02:12:30.732Z,102598.84
2023-02-11T02:15:35.889Z,102586.94
2023-02-11T02:18:13.044Z,102580.06
2023-02-11T02:21:11.869Z,102563.72
2023-02-11T02:23:57.442Z,102570.97
2023-02-11T02:26:53.070Z,102576.91
2023-02-11T02:29:42.182Z,102570.00
2023-02-11T02:32:33.317Z,102565.81
2023-02-11T02:35:06.932Z,102558.75
2023-02-11T02:37:38.696Z,102555.88
2023-02-11T02:40:11.385Z,102552.72
2023-02-11T02:42:40.858Z,102539.84
2023-02-11T02:45:10.766Z,102543.97
2023-02-11T02:47:40.382Z,102540.88
2023-02-11T02:50:09.802Z,102544.41
2023-02-11T02:52:44.448Z,102547.16
2023-02-11T02:55:23.632Z,102519.16
2023-02-11T02:58:14.733Z,102550.72
2023-02-11T03:00:49.703Z,102548.50
2023-02-11T03:03:26.782Z,102547.09
2023-02-11T03:05:58.441Z,102540.75
2023-02-11T03:08:31.172Z,102550.63
2023-02-11T03:11:00.288Z,102549.00
2023-02-11T03:13:33.829Z,102549.84
2023-02-11T03:16:06.245Z,102540.44
2023-02-11T03:18:37.272Z,102554.72
2023-02-11T03:21:06.602Z,102550.81
2023-02-11T03:23:38.548Z,102556.66
2023-02-11T03:26:11.915Z,102561.78
2023-02-11T03:28:44.038Z,102557.00
2023-02-11T03:31:18.681Z,102559.28
2023-02-11T03:33:53.345Z,102564.31
2023-02-11T03:36:25.471Z,102572.38
2023-02-11T03:38:58.163Z,102569.75
2023-02-11T03:41:26.761Z,102577.00
2023-02-11T03:43:57.602Z,102569.00
2023-02-11T03:46:30.173Z,102555.75
2023-02-11T03:49:03.486Z,102550.91
2023-02-11T03:51:32.950Z,102541.13
2023-02-11T03:54:03.842Z,102544.31
2023-02-11T03:56:36.770Z,102535.94
2023-02-11T03:59:04.912Z,102527.53
2023-02-11T04:01:33.384Z,102532.56
2023-02-11T04:04:02.884Z,102534.53
2023-02-11T04:06:31.212Z,102545.28
2023-02-11T04:08:59.271Z,102541.13
2023-02-11T04:11:27.673Z,102525.41
2023-02-11T04:13:56.071Z,102522.09
2023-02-11T04:16:24.888Z,102520.84
2023-02-11T04:18:53.099Z,102494.09
2023-02-11T04:21:22.793Z,102513.28
2023-02-11T04:23:50.881Z,102510.00
2023-02-11T04:26:19.210Z,102504.06
2023-02-11T04:28:47.281Z,102519.41
2023-02-11T04:31:16.068Z,102512.97
2023-02-11T04:33:44.528Z,102502.91
2023-02-11T04:36:13.854Z,102497.50
2023-02-11T04:38:43.385Z,102494.88
2023-02-11T04:41:11.775Z,102493.72
2023-02-11T04:43:39.855Z,102470.91
2023-02-11T04:46:08.663Z,102475.97
2023-02-11T04:48:36.878Z,102471.91
2023-02-11T04:51:05.763Z,102473.53
2023-02-11T04:53:33.862Z,102475.19
2023-02-11T04:56:03.665Z,102481.47
2023-02-11T04:58:31.823Z,102491.84
2023-02-11T05:01:06.896Z,102494.78
2023-02-11T05:03:35.465Z,102502.63
2023-02-11T05:06:04.235Z,102491.94
2023-02-11T05:08:32.938Z,102503.59
2023-02-11T05:11:03.193Z,102510.09
2023-02-11T05:13:31.664Z,102508.06
2023-02-11T05:16:00.611Z,102487.41
2023-02-11T05:18:28.911Z,102518.63
2023-02-11T05:20:57.573Z,102527.56
2023-02-11T05:23:25.785Z,102528.94
2023-02-11T05:25:54.497Z,102511.31
2023-02-11T05:28:24.093Z,102525.88
2023-02-11T05:30:52.611Z,102532.91
2023-02-11T05:33:20.938Z,102531.97
2023-02-11T05:35:49.997Z,102532.19
2023-02-11T05:38:18.441Z,102527.84
2023-02-11T05:40:46.834Z,102518.13
2023-02-11T05:43:14.911Z,102487.69
2023-02-11T05:45:44.701Z,102493.78
2023-02-11T05:48:12.803Z,102497.34
2023-02-11T05:50:42.234Z,102504.06
2023-02-11T05:53:10.349Z,102502.03
2023-02-11T05:55:39.246Z,102505.50
2023-02-11T05:58:08.158Z,102508.13
2023-02-11T06:00:37.053Z,102512.78
2023-02-11T06:03:06.763Z,102520.16
2023-02-11T06:05:35.893Z,102521.81
2023-02-11T06:08:04.054Z,102502.63
2023-02-11T06:10:32.506Z,102503.31
2023-02-11T06:13:00.612Z,102495.25
2023-02-11T06:15:29.138Z,102498.66
2023-02-11T06:17:57.699Z,102507.84
2023-02-11T06:20:27.423Z,102505.34
2023-02-11T06:22:55.760Z,102495.16
2023-02-11T06:25:24.230Z,102491.19
2023-02-11T06:27:52.648Z,102492.53
2023-02-11T06:30:21.308Z,102495.25
2023-02-11T06:32:49.534Z,102485.66
2023-02-11T06:35:18.220Z,102501.00
2023-02-11T06:37:49.609Z,102507.72
2023-02-11T06:40:18.201Z,102504.03
2023-02-11T06:42:46.439Z,102498.97
2023-02-11T06:45:14.966Z,102500.34
2023-02-11T06:47:43.155Z,102509.13
2023-02-11T06:50:14.509Z,102513.06
2023-02-11T06:52:42.615Z,102514.91
2023-02-11T06:55:12.414Z,102511.41
2023-02-11T06:57:40.631Z,102520.19
2023-02-11T07:00:10.335Z,102520.75
2023-02-11T07:02:38.498Z,102497.53
2023-02-11T07:05:07.746Z,102516.16
2023-02-11T07:07:35.869Z,102528.31
2023-02-11T07:10:05.797Z,102528.59
2023-02-11T07:12:35.351Z,102524.84
2023-02-11T07:15:06.220Z,102527.59
2023-02-11T07:17:35.415Z,102523.16
2023-02-11T07:20:04.253Z,102519.66
2023-02-11T07:22:32.383Z,102505.66
2023-02-11T07:25:00.701Z,102521.63
2023-02-11T07:27:28.831Z,102521.88
2023-02-11T07:29:58.601Z,102521.06
2023-02-11T07:32:26.832Z,102524.88
2023-02-11T07:34:55.696Z,102519.41
2023-02-11T07:37:23.909Z,102526.16
2023-02-11T07:39:52.745Z,102531.78
2023-02-11T07:42:20.854Z,102525.97
2023-02-11T07:44:50.624Z,102529.00
2023-02-11T07:47:20.413Z,102515.00
2023-02-11T07:49:48.789Z,102523.34
2023-02-11T07:52:17.087Z,102528.00
2023-02-11T07:54:46.380Z,102540.03
2023-02-11T07:57:14.573Z,102526.56
2023-02-11T07:59:43.053Z,102535.84
2023-02-11T08:02:11.303Z,102527.06
2023-02-11T08:04:41.447Z,102533.09
2023-02-11T08:07:09.592Z,102521.25
2023-02-11T08:09:38.023Z,102532.19
2023-02-11T08:12:06.552Z,102530.28
2023-02-11T08:14:35.001Z,102536.59
2023-02-11T08:17:03.095Z,102532.69
2023-02-11T08:19:34.841Z,102531.06
2023-02-11T08:22:04.859Z,102507.97
2023-02-11T08:24:33.342Z,102522.50
2023-02-11T08:27:01.526Z,102523.00
2023-02-11T08:29:29.880Z,102531.44
2023-02-11T08:31:58.002Z,102530.47
2023-02-11T08:34:26.440Z,102521.59
2023-02-11T08:36:54.958Z,102533.47
2023-02-11T08:39:24.775Z,102533.66
2023-02-11T08:41:56.499Z,102517.63
2023-02-11T08:44:25.453Z,102524.09
2023-02-11T08:46:54.819Z,102530.75
2023-02-11T08:49:23.376Z,102526.31
2023-02-11T08:51:51.883Z,102521.22
2023-02-11T08:54:20.489Z,102531.03
2023-02-11T08:56:52.234Z,102529.56
2023-02-11T08:59:20.676Z,102531.28
2023-02-11T09:01:48.969Z,102529.19
2023-02-11T09:04:17.798Z,102532.00
2023-02-11T09:06:46.257Z,102537.72
2023-02-11T09:09:16.017Z,102544.38
2023-02-11T09:11:45.123Z,102547.38
2023-02-11T09:14:19.407Z,102554.59
2023-02-11T09:16:48.054Z,102559.06
2023-02-11T09:19:16.674Z,102560.50
2023-02-11T09:21:44.852Z,102555.09
2023-02-11T09:24:13.699Z,102555.19
2023-02-11T09:26:43.126Z,102545.75
2023-02-11T09:29:11.541Z,102559.34
2023-02-11T09:31:41.096Z,102568.28
2023-02-11T09:34:10.572Z,102535.47
2023-02-11T09:36:40.318Z,102544.13
2023-02-11T09:39:12.327Z,102549.25
2023-02-11T09:41:48.086Z,102556.03
2023-02-11T09:44:20.100Z,102556.31
2023-02-11T09:46:54.842Z,102556.31
2023-02-11T09:49:28.250Z,102549.72
2023-02-11T09:51:59.971Z,102553.38
2023-02-11T09:54:31.886Z,102536.66
2023-02-11T09:57:00.046Z,102547.53
2023-02-11T09:59:28.620Z,102546.06
2023-02-11T10:02:00.285Z,102551.16
2023-02-11T10:04:45.773Z,102546.25
2023-02-11T10:07:19.959Z,102544.31
2023-02-11T10:09:58.147Z,102541.06
2023-02-11T10:12:34.970Z,102542.72
2023-02-11T10:15:13.673Z,102544.38
2023-02-11T10:17:53.759Z,102544.34
2023-02-11T10:20:29.140Z,102538.78
2023-02-11T10:23:01.013Z,102543.69
2023-02-11T10:25:35.217Z,102538.41
2023-02-11T10:28:12.883Z,102536.47
2023-02-11T10:30:44.222Z,102534.16
2023-02-11T10:33:20.745Z,102535.09
2023-02-11T10:35:49.594Z,102530.75
2023-02-11T10:38:17.954Z,102542.94
2023-02-11T10:40:47.478Z,102526.38
2023-02-11T10:43:17.948Z,102526.28
2023-02-11T10:45:48.981Z,102508.97
2023-02-11T10:48:42.254Z,102520.28
2023-02-11T10:51:23.512Z,102516.47
2023-02-11T10:53:53.675Z,102522.53
2023-02-11T10:56:25.559Z,102523.75
2023-02-11T10:58:59.426Z,102530.16
2023-02-11T11:01:42.224Z,102522.94
2023-02-11T11:04:33.659Z,102527.63
2023-02-11T11:07:12.188Z,102529.44
2023-02-11T11:09:46.313Z,102527.56
2023-02-11T11:12:26.947Z,102527.44
2023-02-11T11:14:56.571Z,102532.25
2023-02-11T11:17:29.108Z,102517.94
2023-02-11T11:20:35.403Z,102527.75
2023-02-11T11:23:15.201Z,102533.50
2023-02-11T11:25:46.091Z,102536.31
2023-02-11T11:28:23.638Z,102528.41
2023-02-11T11:30:56.087Z,102532.50
2023-02-11T11:33:27.173Z,102529.31
2023-02-11T11:36:01.031Z,102534.03
2023-02-11T11:38:30.613Z,102542.59
2023-02-11T11:41:23.793Z,102536.03
2023-02-11T11:44:03.596Z,102542.25
2023-02-11T11:46:35.220Z,102544.75
2023-02-11T11:49:13.544Z,102545.78
2023-02-11T11:51:45.975Z,102543.00
2023-02-11T11:54:16.933Z,102530.03
2023-02-11T11:56:52.333Z,102525.19
2023-02-11T11:59:20.885Z,102522.81
2023-02-11T12:02:10.055Z,102515.31
2023-02-11T12:04:47.732Z,102504.41
2023-02-11T12:07:26.719Z,102503.19
2023-02-11T12:10:13.281Z,102503.66
2023-02-11T12:12:46.983Z,102498.28
2023-02-11T12:15:26.583Z,102493.69
2023-02-11T12:18:06.887Z,102491.28
2023-02-11T12:20:41.524Z,102487.41
2023-02-11T12:23:28.272Z,102486.19
2023-02-11T12:26:02.671Z,102483.06
2023-02-11T12:28:39.122Z,102481.97
2023-02-11T12:31:21.021Z,102484.09
2023-02-11T12:34:01.725Z,102469.50
2023-02-11T12:36:43.383Z,102477.28
2023-02-11T12:39:21.766Z,102468.75
2023-02-11T12:42:21.133Z,102470.28
2023-02-11T12:44:59.588Z,102478.00
2023-02-11T12:47:34.668Z,102477.78
2023-02-11T12:50:15.188Z,102483.19
2023-02-11T12:53:18.259Z,102487.78
2023-02-11T12:55:51.373Z,102489.91
2023-02-11T12:58:35.599Z,102478.09
2023-02-11T13:01:10.104Z,102475.78
2023-02-11T13:03:41.614Z,102483.91
2023-02-11T13:06:12.928Z,102463.09
2023-02-11T13:08:45.102Z,102474.47
2023-02-11T13:11:18.634Z,102471.91
2023-02-11T13:13:53.960Z,102472.56
2023-02-11T13:16:33.535Z,102479.78
2023-02-11T13:19:05.115Z,102482.03
2023-02-11T13:21:40.187Z,102477.94
2023-02-11T13:24:21.268Z,102472.63
2023-02-11T13:27:00.173Z,102455.88
2023-02-11T13:29:34.796Z,102464.03
2023-02-11T13:32:11.655Z,102466.91
2023-02-11T13:35:17.245Z,102464.63
2023-02-11T13:37:48.659Z,102465.25
2023-02-11T13:40:24.240Z,102459.94
2023-02-11T13:42:56.268Z,102458.72
2023-02-11T13:45:30.599Z,102465.97
2023-02-11T13:48:00.009Z,102467.56
2023-02-11T13:50:29.327Z,102460.41
2023-02-11T13:53:02.678Z,102460.59
2023-02-11T13:55:31.694Z,102454.84
2023-02-11T13:58:23.689Z,102455.81
2023-02-11T14:00:52.828Z,102452.28
2023-02-11T14:04:04.484Z,102460.81
2023-02-11T14:07:01.872Z,102463.38
2023-02-11T14:09:42.149Z,102461.31
2023-02-11T14:12:35.124Z,102467.22
2023-02-11T14:15:23.303Z,102455.19
2023-02-11T14:17:52.420Z,102458.69
2023-02-11T14:20:39.458Z,102463.38
2023-02-11T14:23:08.163Z,102471.84
2023-02-11T14:25:37.073Z,102464.66
2023-02-11T14:28:11.195Z,102466.53
2023-02-11T14:30:47.946Z,102462.66
2023-02-11T14:33:39.480Z,102453.69
2023-02-11T14:36:20.159Z,102466.66
2023-02-11T14:38:57.771Z,102461.06
2023-02-11T14:41:27.755Z,102469.31
2023-02-11T14:43:57.897Z,102471.47
2023-02-11T14:46:29.911Z,102479.41
2023-02-11T14:48:59.985Z,102479.09
2023-02-11T14:51:31.389Z,102476.72
2023-02-11T14:54:03.879Z,102470.25
2023-02-11T14:56:34.377Z,102480.88
2023-02-11T14:59:03.620Z,102477.09
2023-02-11T15:01:35.489Z,102485.03
2023-02-11T15:04:06.068Z,102492.72
2023-02-11T15:06:37.306Z,102487.81
2023-02-11T15:09:07.840Z,102487.69
2023-02-11T15:11:40.876Z,102490.97
2023-02-11T15:14:11.705Z,102489.31
2023-02-11T15:16:44.545Z,102491.22
2023-02-11T15:19:21.753Z,102490.56
2023-02-11T15:21:50.681Z,102493.41
2023-02-11T15:24:25.425Z,102494.09
2023-02-11T15:26:58.190Z,102495.34
2023-02-11T15:29:27.489Z,102503.09
2023-02-11T15:32:08.134Z,102500.72
2023-02-11T15:34:37.163Z,102489.63
2023-02-11T15:37:05.473Z,102494.47
2023-02-11T15:39:36.543Z,102490.00
2023-02-11T15:42:22.532Z,102492.72
2023-02-11T15:45:08.111Z,102490.06
2023-02-11T15:47:37.730Z,102492.19
2023-02-11T15:50:07.356Z,102484.63
2023-02-11T15:52:35.808Z,102495.75
2023-02-11T15:55:04.877Z,102501.16
2023-02-11T15:57:36.000Z,102497.75
2023-02-11T16:00:08.004Z,102502.09
2023-02-11T16:02:45.378Z,102487.13
2023-02-11T16:05:34.186Z,102502.44
2023-02-11T16:08:19.298Z,102504.91
2023-02-11T16:11:01.445Z,102490.53
2023-02-11T16:13:34.557Z,102497.56
2023-02-11T16:16:06.531Z,102503.13
2023-02-11T16:18:40.058Z,102502.47
2023-02-11T16:21:18.662Z,102511.53
2023-02-11T16:24:01.705Z,102514.44
2023-02-11T16:26:34.316Z,102514.34
2023-02-11T16:29:07.080Z,102514.06
2023-02-11T16:31:39.815Z,102513.25
2023-02-11T16:34:18.842Z,102520.91
2023-02-11T16:36:48.548Z,102510.50
2023-02-11T16:39:17.887Z,102528.38
2023-02-11T16:41:46.442Z,102520.75
2023-02-11T16:44:15.031Z,102528.25
2023-02-11T16:46:44.384Z,102524.06
2023-02-11T16:49:18.746Z,102526.16
2023-02-11T16:51:49.885Z,102526.44
2023-02-11T16:54:19.512Z,102517.81
2023-02-11T16:56:48.617Z,102530.75
2023-02-11T16:59:17.139Z,102538.28
2023-02-11T17:01:46.234Z,102539.38
2023-02-11T17:04:20.991Z,102518.44
2023-02-11T17:06:50.470Z,102534.31
2023-02-11T17:09:20.750Z,102535.50
2023-02-11T17:11:49.578Z,102530.13
2023-02-11T17:14:18.139Z,102522.13
2023-02-11T17:16:47.777Z,102511.94
2023-02-11T17:19:18.697Z,102531.69
2023-02-11T17:21:49.980Z,102527.41
2023-02-11T17:24:18.787Z,102530.69
2023-02-11T17:26:47.431Z,102528.66
2023-02-11T17:29:17.545Z,102530.69
2023-02-11T17:31:46.352Z,102521.19
2023-02-11T17:34:14.922Z,102535.59
2023-02-11T17:36:43.443Z,102534.69
2023-02-11T17:39:13.652Z,102538.72
2023-02-11T17:41:42.740Z,102533.78
2023-02-11T17:44:12.223Z,102546.00
2023-02-11T17:46:41.082Z,102550.91
2023-02-11T17:49:09.278Z,102546.47
2023-02-11T17:51:38.890Z,102538.88
2023-02-11T17:54:09.663Z,102552.00
2023-02-11T17:56:39.831Z,102550.38
2023-02-11T17:59:09.375Z,102561.88
2023-02-11T18:01:39.454Z,102559.69
2023-02-11T18:04:09.458Z,102555.66
2023-02-11T18:06:37.927Z,102561.41
2023-02-11T18:09:07.312Z,102565.31
2023-02-11T18:11:39.898Z,102564.31
2023-02-11T18:14:09.301Z,102569.13
2023-02-11T18:16:39.463Z,102567.63
2023-02-11T18:19:08.492Z,102571.66
2023-02-11T18:21:37.597Z,102565.28
2023-02-11T18:24:07.223Z,102568.22
2023-02-11T18:26:36.427Z,102577.72
2023-02-11T18:29:06.953Z,102572.50
2023-02-11T18:31:36.309Z,102576.41
2023-02-11T18:34:05.506Z,102576.06
2023-02-11T18:36:34.304Z,102571.50
2023-02-11T18:39:02.428Z,102565.66
2023-02-11T18:41:30.844Z,102574.41
2023-02-11T18:44:03.431Z,102566.22
2023-02-11T18:46:34.419Z,102565.41
2023-02-11T18:49:02.727Z,102570.50
2023-02-11T18:51:32.566Z,102575.00
2023-02-11T18:54:01.197Z,102569.16
2023-02-11T18:56:29.676Z,102570.41
2023-02-11T18:59:01.070Z,102579.63
2023-02-11T19:01:31.141Z,102571.31
2023-02-11T19:04:03.207Z,102572.91
2023-02-11T19:06:33.602Z,102573.25
2023-02-11T19:09:03.311Z,102560.66
2023-02-11T19:11:49.806Z,102578.69
2023-02-11T19:14:23.364Z,102577.50
2023-02-11T19:16:54.051Z,102573.22
2023-02-11T19:19:24.853Z,102568.56
2023-02-11T19:21:53.449Z,102564.91
2023-02-11T19:24:22.853Z,102570.00
2023-02-11T19:26:52.305Z,102563.41
2023-02-11T19:29:20.523Z,102563.78
2023-02-11T19:31:49.946Z,102576.94
2023-02-11T19:34:19.901Z,102580.84
2023-02-11T19:36:50.700Z,102578.94
2023-02-11T19:39:19.421Z,102580.22
2023-02-11T19:41:47.762Z,102579.50
2023-02-11T19:44:16.860Z,102582.44
2023-02-11T19:46:46.322Z,102581.84
2023-02-11T19:49:16.310Z,102587.69
2023-02-11T19:51:44.761Z,102594.13
2023-02-11T19:54:14.686Z,102595.31
2023-02-11T19:56:44.699Z,102598.63
2023-02-11T19:59:13.914Z,102594.38
2023-02-11T20:01:42.735Z,102593.06
2023-02-11T20:04:10.887Z,102593.13
2023-02-11T20:06:39.441Z,102595.47
2023-02-11T20:09:10.031Z,102593.47
2023-02-11T20:11:40.708Z,102591.13
2023-02-11T20:14:10.514Z,102601.69
2023-02-11T20:16:47.986Z,102599.28
2023-02-11T20:19:21.902Z,102594.44
2023-02-11T20:21:53.421Z,102590.53
2023-02-11T20:24:21.670Z,102594.31
2023-02-11T20:26:55.739Z,102600.97
2023-02-11T20:29:25.156Z,102606.38
2023-02-11T20:31:55.096Z,102612.72
2023-02-11T20:34:24.826Z,102615.28
2023-02-11T20:36:54.139Z,102601.56
2023-02-11T20:39:22.774Z,102602.03
2023-02-11T20:41:53.601Z,102589.59
2023-02-11T20:44:22.740Z,102605.94
2023-02-11T20:46:54.011Z,102608.56
2023-02-11T20:49:23.751Z,102610.66
2023-02-11T20:51:53.625Z,102609.03
2023-02-11T20:54:23.366Z,102607.09
2023-02-11T20:56:55.273Z,102607.22
2023-02-11T20:59:25.707Z,102599.81
2023-02-11T21:02:01.670Z,102598.16
2023-02-11T21:04:32.611Z,102606.63
2023-02-11T21:07:03.004Z,102606.50
2023-02-11T21:09:33.418Z,102608.97
2023-02-11T21:12:04.006Z,102612.59
2023-02-11T21:14:32.408Z,102613.56
2023-02-11T21:17:00.854Z,102594.91
2023-02-11T21:19:29.376Z,102598.41
2023-02-11T21:22:00.501Z,102596.19
2023-02-11T21:24:30.658Z,102590.53
2023-02-11T21:26:59.174Z,102591.13
2023-02-11T21:29:28.592Z,102593.72
2023-02-11T21:31:57.259Z,102593.00
2023-02-11T21:34:25.438Z,102594.31
2023-02-11T21:36:53.803Z,102589.16
2023-02-11T21:39:22.324Z,102605.94
2023-02-11T21:41:51.701Z,102613.44
2023-02-11T21:44:20.979Z,102610.09
2023-02-11T21:46:50.907Z,102612.72
2023-02-11T21:49:19.646Z,102618.47
2023-02-11T21:51:48.428Z,102618.59
2023-02-11T21:54:18.654Z,102620.59
2023-02-11T21:56:47.224Z,102620.22
2023-02-11T21:59:16.325Z,102621.06
2023-02-11T22:01:46.390Z,102622.81
2023-02-11T22:04:17.425Z,102631.38
2023-02-11T22:06:45.900Z,102632.53
2023-02-11T22:09:14.011Z,102628.03
2023-02-11T22:11:42.584Z,102621.97
2023-02-11T22:14:10.903Z,102639.59
2023-02-11T22:16:39.380Z,102625.03
2023-02-11T22:19:08.091Z,102635.00
2023-02-11T22:21:38.222Z,102633.97
2023-02-11T22:24:07.216Z,102631.16
2023-02-11T22:26:35.886Z,102630.31
2023-02-11T22:29:04.389Z,102632.59
2023-02-11T22:31:34.924Z,102628.63
2023-02-11T22:34:03.946Z,102633.50
2023-02-11T22:36:34.533Z,102632.22
2023-02-11T22:39:05.972Z,102624.22
2023-02-11T22:41:34.773Z,102632.69
2023-02-11T22:44:02.924Z,102633.63
2023-02-11T22:46:31.308Z,102629.97
2023-02-11T22:48:59.553Z,102620.28
2023-02-11T22:51:29.835Z,102622.56
2023-02-11T22:53:59.958Z,102618.25
2023-02-11T22:56:31.007Z,102619.06
2023-02-11T22:58:59.578Z,102618.38
2023-02-11T23:01:28.125Z,102614.13
2023-02-11T23:03:56.407Z,102619.16
2023-02-11T23:06:24.946Z,102621.56
2023-02-11T23:08:53.172Z,102624.69
2023-02-11T23:11:23.660Z,102631.50
2023-02-11T23:13:54.131Z,102641.34
2023-02-11T23:16:24.658Z,102636.66
2023-02-11T23:18:53.522Z,102631.75
2023-02-11T23:21:24.666Z,102631.75
2023-02-11T23:23:56.089Z,102635.00
2023-02-11T23:26:24.853Z,102636.41
2023-02-11T23:28:54.877Z,102640.72
2023-02-11T23:31:25.702Z,102640.97
2023-02-11T23:33:53.958Z,102639.34
2023-02-11T23:36:23.349Z,102644.59
2023-02-11T23:38:52.377Z,102653.22
2023-02-11T23:41:21.761Z,102648.50
2023-02-11T23:43:51.210Z,102655.78
2023-02-11T23:46:21.727Z,102657.00
2023-02-11T23:48:50.452Z,102654.50
2023-02-11T23:51:19.484Z,102645.03
2023-02-11T23:53:49.175Z,102657.53
2023-02-11T23:56:20.663Z,102658.50
2023-02-11T23:58:49.497Z,102659.63
